Time;durP1;ratioP1;P1;durP2;ratioP2;P2;SDS_P1;SDS_P2;PMS_P1;PMS_P2;Temp;Humidity;BMP_temperature;BMP_pressure;BME280_temperature;BME280_humidity;BME280_pressure;Samples;Min_cycle;Max_cycle;Signal;HPM_P1;HPM_P2
2022/01/21 00:01:05;;;;;;;11.70;3.38;;;1.10;79.90;;;;;;5058472;28;20027;-82
2022/01/21 00:03:31;;;;;;;12.77;3.83;;;1.20;78.80;;;;;;5058917;28;20033;-82
2022/01/21 00:05:56;;;;;;;15.18;3.47;;;1.10;78.60;;;;;;5058125;28;20032;-82
2022/01/21 00:08:22;;;;;;;18.58;4.20;;;1.10;79.00;;;;;;5058741;28;20546;-82
2022/01/21 00:10:48;;;;;;;10.88;3.53;;;1.10;79.30;;;;;;5058054;28;20048;-82
2022/01/21 00:13:33;;;;;;;15.80;4.40;;;1.00;79.50;;;;;;5058028;28;20495;-82
2022/01/21 00:16:01;;;;;;;17.25;4.82;;;1.00;79.90;;;;;;5057993;28;20473;-78
2022/01/21 00:18:27;;;;;;;13.88;3.90;;;0.90;80.20;;;;;;5091494;28;20040;-80
2022/01/21 00:31:49;;;;;;;10.77;3.63;;;0.90;80.90;;;;;;5076021;28;20031;-81
2022/01/21 00:34:14;;;;;;;11.55;3.75;;;0.80;80.70;;;;;;5057678;28;20016;-81
2022/01/21 00:36:40;;;;;;;11.60;3.00;;;0.90;80.70;;;;;;5057569;28;20044;-81
2022/01/21 00:39:06;;;;;;;11.73;3.20;;;0.80;80.80;;;;;;5057626;28;20436;-82
2022/01/21 00:41:32;;;;;;;10.48;3.03;;;0.90;81.70;;;;;;5057562;28;20120;-80
2022/01/21 00:43:58;;;;;;;12.32;3.72;;;0.90;80.80;;;;;;5057352;28;20540;-81
2022/01/21 00:46:24;;;;;;;9.43;3.30;;;0.90;80.70;;;;;;5057417;28;20120;-81
2022/01/21 00:48:49;;;;;;;12.68;3.78;;;1.00;80.70;;;;;;5057467;28;20111;-81
2022/01/21 00:51:15;;;;;;;16.00;3.75;;;1.00;80.70;;;;;;5057661;28;20031;-81
2022/01/21 00:53:41;;;;;;;10.77;3.78;;;1.10;81.10;;;;;;5057434;28;20024;-82
2022/01/21 00:56:06;;;;;;;12.82;3.47;;;1.00;79.80;;;;;;5057269;28;20023;-81
2022/01/21 00:58:32;;;;;;;11.10;3.47;;;1.00;79.90;;;;;;5073089;28;20074;-81
2022/01/21 01:00:57;;;;;;;9.77;3.00;;;1.00;80.00;;;;;;5056919;28;20021;-82
2022/01/21 01:03:26;;;;;;;11.93;3.20;;;1.10;80.00;;;;;;5057144;28;20035;-81
2022/01/21 01:05:52;;;;;;;6.78;2.67;;;1.10;79.60;;;;;;5056991;28;20028;-82
2022/01/21 01:08:18;;;;;;;11.55;2.92;;;1.20;79.30;;;;;;5057046;28;20174;-81
2022/01/21 01:21:33;;;;;;;9.35;3.58;;;1.20;78.70;;;;;;5060066;28;20542;-81
2022/01/21 01:27:35;;;;;;;10.35;3.42;;;1.30;78.70;;;;;;5056882;28;20429;-83
2022/01/21 01:29:31;;;;;;;10.65;3.90;;;1.20;78.60;;;;;;5074886;28;20054;-78
2022/01/21 01:31:57;;;;;;;12.60;4.13;;;1.10;78.50;;;;;;5056678;28;20025;-78
2022/01/21 01:34:23;;;;;;;11.57;3.03;;;1.10;79.10;;;;;;5064138;28;20033;-81
2022/01/21 01:36:48;;;;;;;11.07;3.83;;;1.10;79.00;;;;;;5063481;28;20136;-78
2022/01/21 01:39:30;;;;;;;13.13;3.42;;;1.10;78.80;;;;;;5066970;28;20039;-78
2022/01/21 01:42:16;;;;;;;10.43;2.88;;;1.00;78.60;;;;;;5034426;28;20026;-79
2022/01/21 01:50:27;;;;;;;16.40;4.15;;;1.00;79.70;;;;;;5034422;28;20036;-78
2022/01/21 01:52:52;;;;;;;10.45;3.50;;;1.00;79.20;;;;;;5066005;28;20025;-78
2022/01/21 01:55:18;;;;;;;10.40;3.28;;;1.00;78.90;;;;;;5066070;28;20187;-78
2022/01/21 01:57:45;;;;;;;12.15;3.08;;;1.00;78.80;;;;;;5065817;28;20033;-78
2022/01/21 02:00:11;;;;;;;12.32;3.28;;;1.00;78.60;;;;;;5065979;28;20072;-78
2022/01/21 02:02:37;;;;;;;10.57;3.10;;;1.10;78.80;;;;;;5065969;28;20053;-78
2022/01/21 02:05:04;;;;;;;8.45;3.20;;;1.00;78.70;;;;;;5065710;28;20026;-78
2022/01/21 02:07:30;;;;;;;13.52;3.42;;;1.10;78.90;;;;;;5033833;28;20017;-79
2022/01/21 02:09:55;;;;;;;8.73;3.22;;;1.10;79.10;;;;;;5065486;28;20084;-79
2022/01/21 02:12:21;;;;;;;8.00;3.25;;;1.10;79.10;;;;;;5065675;28;20482;-80
2022/01/21 02:14:50;;;;;;;7.20;3.13;;;1.10;79.00;;;;;;5032387;28;20083;-79
2022/01/21 02:21:29;;;;;;;9.45;3.13;;;1.10;78.90;;;;;;5065736;28;20486;-80
2022/01/21 02:22:49;;;;;;;11.75;2.90;;;1.10;78.50;;;;;;5033675;28;19955;-78
2022/01/21 02:25:17;;;;;;;11.38;3.10;;;1.20;78.20;;;;;;5065409;28;20025;-80
2022/01/21 02:27:47;;;;;;;9.13;3.58;;;1.20;78.10;;;;;;5065389;28;20022;-79
2022/01/21 02:30:20;;;;;;;11.05;3.65;;;1.20;78.00;;;;;;5065391;28;20032;-80
2022/01/21 02:32:51;;;;;;;9.88;3.33;;;1.10;77.80;;;;;;5065283;28;20119;-78
2022/01/21 02:35:19;;;;;;;13.80;3.60;;;1.00;78.00;;;;;;5065249;28;20026;-79
2022/01/21 02:37:45;;;;;;;12.63;3.72;;;1.00;78.20;;;;;;5015511;28;20059;-78
2022/01/21 02:40:12;;;;;;;9.75;3.20;;;1.00;78.10;;;;;;5065083;28;20060;-78
2022/01/21 02:42:38;;;;;;;9.18;3.63;;;1.00;78.10;;;;;;5065042;28;20056;-79
2022/01/21 02:45:05;;;;;;;13.32;3.70;;;1.00;78.00;;;;;;5065104;28;20386;-79
2022/01/21 02:47:31;;;;;;;8.32;2.90;;;0.90;77.80;;;;;;5031814;28;20033;-79
2022/01/21 02:49:56;;;;;;;11.50;4.43;;;0.90;77.80;;;;;;5065091;28;20455;-78
2022/01/21 02:52:26;;;;;;;10.30;2.85;;;0.90;77.60;;;;;;5065221;28;20033;-79
2022/01/21 02:54:51;;;;;;;7.80;3.13;;;0.80;77.50;;;;;;5065197;28;20091;-79
2022/01/21 02:57:17;;;;;;;9.82;3.08;;;0.80;77.60;;;;;;5065011;28;20022;-79
2022/01/21 02:59:43;;;;;;;14.15;3.55;;;0.90;77.70;;;;;;5065018;28;20022;-79
2022/01/21 03:02:09;;;;;;;11.07;3.17;;;0.90;77.90;;;;;;5064823;28;20029;-80
2022/01/21 03:04:53;;;;;;;10.73;3.47;;;0.80;78.10;;;;;;5065179;28;20026;-79
2022/01/21 03:07:20;;;;;;;10.48;3.33;;;0.90;78.10;;;;;;5065121;28;20491;-79
2022/01/21 03:09:47;;;;;;;11.13;3.25;;;1.00;78.60;;;;;;5015389;28;20041;-79
2022/01/21 03:12:13;;;;;;;10.48;3.63;;;1.00;78.20;;;;;;5065039;28;20398;-80
2022/01/21 03:14:38;;;;;;;13.70;3.90;;;1.00;78.00;;;;;;5064424;28;20033;-78
2022/01/21 03:17:04;;;;;;;10.38;3.75;;;1.00;78.10;;;;;;5064886;28;20112;-79
2022/01/21 03:19:29;;;;;;;10.50;3.50;;;1.00;78.30;;;;;;5031501;28;20442;-78
2022/01/21 03:21:55;;;;;;;8.00;3.50;;;0.90;78.70;;;;;;5068728;28;20028;-79
2022/01/21 03:24:20;;;;;;;11.00;3.30;;;0.90;78.20;;;;;;5069084;28;20478;-79
2022/01/21 03:26:46;;;;;;;10.45;3.80;;;1.00;78.00;;;;;;5068845;28;20018;-79
2022/01/21 03:29:12;;;;;;;8.48;3.60;;;1.00;77.80;;;;;;5068872;28;20389;-83
2022/01/21 03:31:37;;;;;;;9.68;2.95;;;1.00;77.80;;;;;;5068937;28;20028;-83
2022/01/21 03:34:03;;;;;;;15.20;3.83;;;1.00;78.30;;;;;;5068971;28;20021;-82
2022/01/21 03:36:30;;;;;;;6.53;2.30;;;1.10;77.20;;;;;;5068824;28;20489;-82
2022/01/21 03:38:56;;;;;;;12.68;2.95;;;1.10;77.00;;;;;;5068734;28;20033;-82
2022/01/21 03:41:22;;;;;;;16.20;4.25;;;1.10;76.90;;;;;;5068672;28;20589;-82
2022/01/21 03:43:49;;;;;;;10.63;3.05;;;1.10;76.40;;;;;;5068540;28;20057;-81
2022/01/21 03:46:15;;;;;;;13.85;2.92;;;1.10;75.90;;;;;;5068872;28;20440;-85
2022/01/21 03:48:41;;;;;;;10.52;3.10;;;1.00;75.50;;;;;;5069094;28;20037;-85
2022/01/21 03:51:07;;;;;;;14.23;2.67;;;1.00;75.40;;;;;;5069092;28;20160;-85
2022/01/21 03:53:32;;;;;;;7.97;2.80;;;1.00;75.30;;;;;;5068888;28;20026;-85
2022/01/21 03:55:58;;;;;;;12.20;2.90;;;1.00;75.30;;;;;;5068614;28;20049;-84
2022/01/21 03:58:24;;;;;;;12.43;2.95;;;0.80;75.50;;;;;;5068562;28;20033;-83
2022/01/21 04:00:52;;;;;;;14.02;3.22;;;0.80;75.60;;;;;;5067983;28;20021;-83
2022/01/21 04:03:17;;;;;;;13.18;3.45;;;0.70;75.90;;;;;;5068360;28;20119;-81
2022/01/21 04:05:43;;;;;;;12.85;2.80;;;0.80;76.10;;;;;;5067823;28;20510;-85
2022/01/21 04:08:11;;;;;;;11.60;3.10;;;0.80;75.80;;;;;;5068588;28;20029;-83
2022/01/21 04:10:41;;;;;;;6.43;3.03;;;0.80;75.60;;;;;;5068155;28;20021;-84
2022/01/21 04:13:13;;;;;;;9.48;3.00;;;0.90;75.60;;;;;;5068315;28;20538;-84
2022/01/21 04:15:39;;;;;;;8.45;2.67;;;0.90;75.60;;;;;;5068002;28;20030;-83
2022/01/21 04:18:05;;;;;;;9.55;3.45;;;1.00;75.70;;;;;;5067835;28;20030;-84
2022/01/21 04:20:30;;;;;;;15.52;3.95;;;1.10;76.00;;;;;;5074623;28;20083;-83
2022/01/21 04:22:56;;;;;;;14.82;4.68;;;1.00;76.80;;;;;;5039889;28;20036;-83
2022/01/21 04:25:21;;;;;;;11.38;4.25;;;0.90;78.00;;;;;;5072922;28;20029;-84
2022/01/21 04:27:47;;;;;;;13.77;3.78;;;0.90;78.30;;;;;;5073843;28;20093;-84
2022/01/21 04:30:13;;;;;;;16.17;4.07;;;0.90;78.30;;;;;;5070024;28;20063;-83
2022/01/21 04:32:39;;;;;;;9.85;2.83;;;0.80;78.00;;;;;;5067692;28;20120;-83
2022/01/21 04:35:05;;;;;;;11.38;4.15;;;0.80;78.20;;;;;;5067622;28;20037;-81
2022/01/21 04:37:31;;;;;;;17.52;4.20;;;0.90;77.90;;;;;;5067458;28;20056;-83
2022/01/21 04:40:06;;;;;;;14.02;3.90;;;0.80;77.60;;;;;;5051035;28;20073;-83
2022/01/21 04:48:00;;;;;;;11.27;3.30;;;0.90;77.70;;;;;;5035834;28;20032;-84
2022/01/21 04:50:27;;;;;;;11.95;3.40;;;0.90;77.40;;;;;;5067496;28;20025;-83
2022/01/21 04:52:52;;;;;;;12.65;4.00;;;0.90;77.80;;;;;;5067221;28;20043;-83
2022/01/21 04:55:18;;;;;;;9.32;2.75;;;0.90;78.10;;;;;;5067235;28;20120;-81
2022/01/21 04:57:43;;;;;;;9.73;3.30;;;0.90;78.40;;;;;;5034842;28;20029;-81
2022/01/21 05:00:10;;;;;;;19.73;7.28;;;1.00;78.20;;;;;;5035248;28;20025;-83
2022/01/21 05:02:36;;;;;;;35.45;13.60;;;1.00;77.70;;;;;;5035183;28;20022;-82
2022/01/21 05:05:03;;;;;;;18.40;6.20;;;1.00;77.30;;;;;;5033829;28;20032;-83
2022/01/21 05:07:32;;;;;;;12.93;5.18;;;1.00;77.20;;;;;;5067213;28;20022;-83
2022/01/21 05:09:58;;;;;;;12.07;4.38;;;0.90;77.00;;;;;;5035073;28;20049;-83
2022/01/21 05:12:25;;;;;;;13.82;3.85;;;0.90;76.70;;;;;;5066783;28;20473;-82
2022/01/21 05:15:08;;;;;;;9.93;3.00;;;0.90;76.50;;;;;;5034918;28;20048;-83
2022/01/21 05:17:42;;;;;;;7.47;2.70;;;0.90;76.10;;;;;;5066998;28;20029;-83
2022/01/21 05:20:09;;;;;;;11.77;3.03;;;0.90;76.10;;;;;;5035256;28;20033;-84
2022/01/21 05:22:34;;;;;;;7.82;2.80;;;0.90;76.00;;;;;;5066793;28;20030;-84
2022/01/21 05:25:00;;;;;;;11.93;3.45;;;0.90;76.00;;;;;;5066885;28;20395;-82
2022/01/21 05:27:26;;;;;;;9.93;3.10;;;0.90;76.00;;;;;;5066565;28;20430;-79
2022/01/21 05:29:51;;;;;;;7.85;3.38;;;0.90;76.40;;;;;;5066667;28;20030;-81
2022/01/21 05:32:17;;;;;;;9.18;3.58;;;0.90;76.50;;;;;;5066506;28;20037;-80
2022/01/21 05:34:43;;;;;;;14.32;3.90;;;0.90;76.70;;;;;;5034478;28;20029;-79
2022/01/21 05:37:08;;;;;;;19.20;3.95;;;1.00;76.40;;;;;;5066460;28;20056;-82
2022/01/21 05:39:34;;;;;;;8.75;3.83;;;1.00;76.30;;;;;;5066345;28;20444;-81
2022/01/21 05:42:00;;;;;;;14.10;4.30;;;0.90;76.20;;;;;;5066275;28;20507;-81
2022/01/21 05:46:59;;;;;;;18.05;4.00;;;0.90;77.00;;;;;;5033990;28;20021;-78
2022/01/21 05:49:27;;;;;;;12.32;3.33;;;1.00;77.10;;;;;;5066296;28;20028;-81
2022/01/21 05:52:01;;;;;;;12.43;4.32;;;1.00;77.10;;;;;;5066136;28;20075;-81
2022/01/21 05:54:27;;;;;;;16.88;4.22;;;0.90;77.10;;;;;;5066166;28;20433;-78
2022/01/21 05:56:52;;;;;;;11.52;4.10;;;0.90;76.60;;;;;;5065871;28;20091;-83
2022/01/21 05:59:18;;;;;;;13.15;4.30;;;0.90;76.40;;;;;;5065729;28;20398;-78
2022/01/21 06:01:43;;;;;;;10.02;3.15;;;0.90;76.20;;;;;;5066140;28;20045;-83
2022/01/21 06:04:10;;;;;;;11.88;3.63;;;0.90;76.40;;;;;;5066109;28;20026;-81
2022/01/21 06:06:36;;;;;;;14.18;3.40;;;0.80;76.30;;;;;;5066042;28;20030;-79
2022/01/21 06:09:03;;;;;;;11.95;4.55;;;0.90;76.70;;;;;;5065799;28;20029;-82
2022/01/21 06:11:29;;;;;;;12.75;3.67;;;0.90;76.40;;;;;;5033939;28;20087;-77
2022/01/21 06:13:54;;;;;;;11.98;3.85;;;0.90;76.20;;;;;;5065805;28;20382;-79
2022/01/21 06:16:20;;;;;;;11.98;3.25;;;0.90;76.30;;;;;;5033739;28;20474;-78
2022/01/21 06:18:46;;;;;;;12.45;3.08;;;0.90;76.00;;;;;;5065391;28;20041;-79
2022/01/21 06:21:12;;;;;;;10.57;3.22;;;1.00;76.20;;;;;;5065674;28;20021;-78
2022/01/21 06:23:38;;;;;;;11.38;3.15;;;0.90;75.90;;;;;;5065343;28;20497;-78
2022/01/21 06:26:04;;;;;;;12.68;3.83;;;0.90;76.00;;;;;;5065418;28;20116;-77
2022/01/21 06:28:29;;;;;;;5.93;3.08;;;0.90;75.90;;;;;;5064728;28;20360;-78
2022/01/21 06:30:55;;;;;;;10.07;3.78;;;1.00;75.90;;;;;;5065172;28;20022;-81
2022/01/21 06:33:22;;;;;;;11.82;3.28;;;1.00;76.10;;;;;;5065296;28;20509;-82
2022/01/21 06:35:49;;;;;;;13.57;3.83;;;1.00;76.30;;;;;;5065779;28;20505;-78
2022/01/21 06:38:15;;;;;;;10.90;3.63;;;1.00;76.10;;;;;;5054794;28;20119;-80
2022/01/21 06:40:41;;;;;;;13.68;4.32;;;1.00;76.00;;;;;;5073082;28;20055;-83
2022/01/21 06:43:07;;;;;;;17.23;4.57;;;1.00;76.20;;;;;;5055203;28;20024;-78
2022/01/21 06:45:32;;;;;;;14.10;3.83;;;1.00;76.10;;;;;;5073040;28;20544;-78
2022/01/21 06:47:58;;;;;;;10.27;3.90;;;1.00;75.60;;;;;;5054952;28;20116;-78
2022/01/21 06:50:28;;;;;;;13.65;4.40;;;1.00;75.40;;;;;;5055065;28;20028;-78
2022/01/21 06:52:55;;;;;;;10.48;3.28;;;0.90;75.40;;;;;;5054949;28;20029;-80
2022/01/21 06:55:21;;;;;;;14.43;3.47;;;0.90;75.50;;;;;;5054175;28;20077;-80
2022/01/21 06:57:47;;;;;;;15.43;4.60;;;0.80;75.40;;;;;;5054734;28;20135;-84
2022/01/21 07:00:18;;;;;;;9.88;3.75;;;0.80;75.80;;;;;;5055367;28;20100;-82
2022/01/21 07:02:47;;;;;;;8.50;3.40;;;0.80;76.00;;;;;;5054924;28;20405;-83
2022/01/21 07:05:13;;;;;;;11.45;4.07;;;0.80;76.10;;;;;;5054828;28;20024;-80
2022/01/21 07:07:39;;;;;;;17.75;3.60;;;0.80;76.00;;;;;;5054692;28;20392;-78
2022/01/21 07:10:06;;;;;;;15.48;4.03;;;0.80;75.90;;;;;;5054559;28;20392;-80
2022/01/21 07:12:34;;;;;;;21.20;4.30;;;0.70;75.90;;;;;;5054444;28;20059;-80
2022/01/21 07:15:00;;;;;;;17.60;4.30;;;0.70;76.00;;;;;;5054494;28;20047;-79
2022/01/21 07:17:26;;;;;;;14.95;4.55;;;0.80;76.00;;;;;;5054386;28;20423;-79
2022/01/21 07:19:52;;;;;;;12.40;4.22;;;0.80;75.90;;;;;;5054153;28;20040;-80
2022/01/21 07:22:18;;;;;;;10.50;3.80;;;0.80;75.80;;;;;;5054365;28;20078;-79
2022/01/21 07:24:44;;;;;;;12.45;3.80;;;0.70;75.90;;;;;;5054387;28;20029;-78
2022/01/21 07:27:10;;;;;;;9.52;3.60;;;0.70;76.90;;;;;;5054384;28;20538;-78
2022/01/21 07:29:36;;;;;;;12.18;3.70;;;0.70;76.20;;;;;;5054427;28;20017;-79
2022/01/21 07:32:02;;;;;;;9.88;4.60;;;0.70;76.50;;;;;;5054511;28;20047;-78
2022/01/21 07:35:08;;;;;;;10.90;3.70;;;0.80;76.30;;;;;;5054376;28;20024;-82
2022/01/21 07:37:43;;;;;;;19.60;3.28;;;1.00;81.90;;;;;;5072074;28;20056;-81
2022/01/21 07:40:30;;;;;;;10.45;3.40;;;1.50;86.90;;;;;;5054641;28;20055;-81
2022/01/21 07:43:16;;;;;;;15.55;3.70;;;2.00;83.00;;;;;;5055536;28;20028;-81
2022/01/21 07:46:05;;;;;;;11.15;3.92;;;2.40;77.30;;;;;;5083212;28;20040;-82
2022/01/21 07:48:56;;;;;;;8.10;3.20;;;2.50;74.80;;;;;;5081257;28;20024;-82
2022/01/21 07:51:22;;;;;;;17.75;4.78;;;2.60;72.90;;;;;;5054339;28;20024;-82
2022/01/21 07:53:52;;;;;;;10.95;2.90;;;3.10;74.00;;;;;;5071689;28;20021;-84
2022/01/21 07:56:18;;;;;;;20.13;3.47;;;3.60;72.70;;;;;;5074252;28;20090;-81
2022/01/21 07:58:44;;;;;;;12.60;4.15;;;4.00;71.00;;;;;;5071338;28;20040;-81
2022/01/21 08:01:10;;;;;;;19.85;5.32;;;4.20;69.90;;;;;;5055077;28;20021;-83
2022/01/21 08:03:36;;;;;;;12.98;3.63;;;4.20;67.20;;;;;;5055179;28;20027;-85
2022/01/21 08:07:00;;;;;;;12.05;3.70;;;4.00;66.50;;;;;;5072927;28;20028;-88
2022/01/21 08:09:26;;;;;;;14.27;3.75;;;3.90;66.30;;;;;;5057719;28;20389;-79
2022/01/21 08:11:54;;;;;;;8.93;2.80;;;3.80;66.70;;;;;;5057581;28;20062;-78
2022/01/21 08:14:23;;;;;;;11.70;2.83;;;3.90;66.00;;;;;;5074309;28;20071;-77
2022/01/21 08:16:51;;;;;;;9.02;2.67;;;4.20;64.90;;;;;;5057693;28;20060;-82
2022/01/21 08:19:16;;;;;;;16.88;3.42;;;4.20;62.30;;;;;;5074646;28;20044;-82
2022/01/21 08:21:42;;;;;;;7.28;2.78;;;3.90;61.40;;;;;;5075556;28;20095;-81
2022/01/21 08:24:09;;;;;;;16.88;4.47;;;3.70;61.80;;;;;;5057725;28;20035;-77
2022/01/21 08:26:36;;;;;;;17.23;6.07;;;3.50;62.70;;;;;;5057684;28;20021;-82
2022/01/21 08:29:03;;;;;;;17.95;5.05;;;3.10;63.60;;;;;;5075792;28;20020;-82
2022/01/21 08:31:29;;;;;;;24.25;4.50;;;3.00;64.30;;;;;;5057628;28;20020;-82
2022/01/21 08:33:54;;;;;;;13.57;4.07;;;2.80;65.40;;;;;;5075278;28;20078;-83
2022/01/21 08:36:25;;;;;;;11.55;4.07;;;2.40;67.30;;;;;;5057056;28;20048;-82
2022/01/21 08:38:51;;;;;;;7.15;3.10;;;2.00;68.70;;;;;;5057500;28;20056;-82
2022/01/21 08:41:18;;;;;;;15.48;4.85;;;1.90;69.60;;;;;;5075383;28;20073;-82
2022/01/21 08:43:43;;;;;;;9.93;3.70;;;1.90;69.90;;;;;;5090542;28;20133;-80
2022/01/21 08:46:10;;;;;;;13.73;3.58;;;1.80;70.30;;;;;;5075290;28;20351;-81
2022/01/21 08:48:35;;;;;;;18.63;5.30;;;1.90;70.70;;;;;;5057116;28;20025;-82
2022/01/21 08:51:08;;;;;;;18.35;5.38;;;1.90;71.00;;;;;;5057395;28;20027;-81
2022/01/21 08:53:36;;;;;;;20.65;4.95;;;1.80;71.00;;;;;;5056923;28;20024;-82
2022/01/21 08:56:13;;;;;;;14.18;3.92;;;1.80;70.90;;;;;;5057259;28;20029;-80
2022/01/21 08:58:40;;;;;;;16.98;4.70;;;1.90;70.70;;;;;;5060134;28;20042;-80
2022/01/21 09:01:06;;;;;;;16.05;4.72;;;1.60;71.50;;;;;;5056455;28;20029;-81
2022/01/21 09:03:32;;;;;;;14.15;3.60;;;1.70;71.80;;;;;;5056920;28;20052;-80
2022/01/21 09:05:58;;;;;;;14.80;3.95;;;1.80;71.30;;;;;;5056709;28;20056;-82
2022/01/21 09:08:25;;;;;;;24.25;4.18;;;1.90;71.00;;;;;;5056836;28;20055;-81
2022/01/21 09:10:52;;;;;;;7.80;3.22;;;2.00;70.20;;;;;;5056666;28;20067;-83
2022/01/21 09:13:19;;;;;;;11.77;3.95;;;2.10;69.90;;;;;;5056906;28;20024;-81
2022/01/21 09:15:45;;;;;;;8.85;2.95;;;2.20;69.80;;;;;;5056608;28;20060;-81
2022/01/21 09:18:11;;;;;;;14.23;3.97;;;2.20;68.80;;;;;;5055778;28;20063;-82
2022/01/21 09:20:37;;;;;;;14.75;3.17;;;2.20;68.70;;;;;;5056631;28;20506;-79
2022/01/21 09:23:04;;;;;;;14.68;3.65;;;1.90;69.60;;;;;;5056597;28;20028;-77
2022/01/21 09:25:30;;;;;;;9.32;3.00;;;2.00;69.60;;;;;;5056478;28;20104;-78
2022/01/21 09:27:56;;;;;;;12.57;3.17;;;2.00;69.40;;;;;;5056385;28;20646;-76
2022/01/21 09:30:21;;;;;;;15.40;3.35;;;2.00;68.90;;;;;;5074102;28;20135;-77
2022/01/21 09:32:47;;;;;;;14.45;4.93;;;1.90;69.40;;;;;;5055979;28;20165;-77
2022/01/21 09:35:13;;;;;;;8.43;3.38;;;2.00;69.30;;;;;;5056109;28;20111;-78
2022/01/21 09:37:39;;;;;;;12.02;3.15;;;1.90;70.70;;;;;;5056046;28;20075;-80
2022/01/21 09:40:06;;;;;;;20.73;3.58;;;1.80;69.60;;;;;;5056289;28;20040;-78
2022/01/21 09:42:34;;;;;;;13.93;3.58;;;1.90;69.50;;;;;;5055903;28;20055;-79
2022/01/21 09:45:02;;;;;;;13.77;3.47;;;1.90;69.30;;;;;;5056481;28;20036;-78
2022/01/21 09:47:31;;;;;;;13.52;3.85;;;2.00;69.80;;;;;;5055980;28;20024;-78
2022/01/21 09:49:57;;;;;;;13.25;3.53;;;2.10;70.80;;;;;;5055811;28;20031;-79
2022/01/21 09:52:24;;;;;;;13.10;3.85;;;2.10;69.30;;;;;;5055694;28;20029;-78
2022/01/21 09:54:53;;;;;;;10.05;3.53;;;2.20;69.50;;;;;;5039175;28;20032;-76
2022/01/21 09:57:22;;;;;;;14.88;4.07;;;2.30;69.40;;;;;;5055708;28;20116;-78
2022/01/21 09:59:50;;;;;;;16.73;5.35;;;2.50;68.70;;;;;;5039075;28;20162;-77
2022/01/21 10:02:19;;;;;;;11.05;4.47;;;2.60;68.00;;;;;;5055422;28;20047;-79
2022/01/21 10:04:49;;;;;;;14.32;4.10;;;2.50;67.30;;;;;;5055508;28;20086;-79
2022/01/21 10:07:17;;;;;;;16.35;4.35;;;2.30;67.30;;;;;;5055542;28;20098;-78
2022/01/21 10:09:44;;;;;;;14.00;4.13;;;2.10;68.10;;;;;;5055413;28;20031;-79
2022/01/21 10:12:10;;;;;;;15.60;3.95;;;2.10;68.70;;;;;;5055482;28;20115;-79
2022/01/21 10:14:38;;;;;;;14.95;4.28;;;2.20;68.60;;;;;;5055319;28;20389;-80
2022/01/21 10:17:05;;;;;;;20.15;4.25;;;2.00;68.80;;;;;;5055353;28;20090;-78
2022/01/21 10:19:35;;;;;;;15.70;4.47;;;1.90;69.40;;;;;;5055173;28;20063;-79
2022/01/21 10:22:03;;;;;;;19.40;4.68;;;1.90;69.50;;;;;;5055174;28;20032;-78
2022/01/21 10:24:33;;;;;;;11.45;3.90;;;2.00;69.50;;;;;;5055292;28;20083;-79
2022/01/21 10:27:00;;;;;;;13.48;3.83;;;2.20;69.00;;;;;;5055007;28;20035;-78
2022/01/21 10:29:41;;;;;;;15.43;4.50;;;2.20;68.40;;;;;;5038334;28;20029;-78
2022/01/21 10:32:08;;;;;;;19.08;3.80;;;2.10;68.80;;;;;;5055233;28;20050;-82
2022/01/21 10:34:40;;;;;;;12.07;3.95;;;2.20;67.50;;;;;;5055216;28;20024;-83
2022/01/21 10:37:30;;;;;;;15.57;4.07;;;2.30;67.80;;;;;;5054742;28;20392;-78
2022/01/21 10:40:09;;;;;;;19.30;4.05;;;2.70;66.70;;;;;;5055068;28;20327;-81
2022/01/21 10:42:36;;;;;;;10.52;3.33;;;2.80;64.20;;;;;;5054899;28;20534;-83
2022/01/21 10:45:04;;;;;;;11.23;3.10;;;2.70;64.80;;;;;;5055222;28;20127;-82
2022/01/21 10:47:33;;;;;;;10.02;3.60;;;3.00;63.50;;;;;;5055348;28;20028;-80
2022/01/21 10:50:14;;;;;;;13.57;3.53;;;3.30;62.00;;;;;;5073312;28;20024;-87
2022/01/21 10:52:50;;;;;;;11.02;3.42;;;3.70;61.10;;;;;;5055371;28;20047;-79
2022/01/21 10:55:38;;;;;;;9.95;3.45;;;4.00;59.20;;;;;;5055226;28;20055;-79
2022/01/21 10:58:12;;;;;;;12.82;2.88;;;4.20;57.20;;;;;;5054731;28;20097;-78
2022/01/21 11:00:56;;;;;;;9.30;3.10;;;4.30;57.10;;;;;;5054861;28;20029;-79
2022/01/21 11:03:22;;;;;;;7.10;2.70;;;4.70;55.40;;;;;;5054811;28;20090;-80
2022/01/21 11:05:50;;;;;;;11.15;3.28;;;5.00;54.40;;;;;;5054473;28;20028;-80
2022/01/21 11:08:17;;;;;;;13.02;3.35;;;5.50;52.70;;;;;;5054305;28;20027;-80
2022/01/21 11:10:49;;;;;;;10.30;2.97;;;5.80;51.00;;;;;;5054396;28;20025;-80
2022/01/21 11:13:21;;;;;;;20.17;6.22;;;6.20;49.00;;;;;;5071768;28;20052;-79
2022/01/21 11:15:56;;;;;;;12.32;2.80;;;6.00;48.20;;;;;;5054721;28;20017;-79
2022/01/21 11:18:22;;;;;;;7.57;2.80;;;5.90;48.10;;;;;;5054276;28;20252;-79
2022/01/21 11:20:57;;;;;;;16.80;3.17;;;6.20;46.90;;;;;;5054298;28;20495;-79
2022/01/21 11:23:28;;;;;;;16.80;3.17;;;6.50;46.20;;;;;;5054489;28;20541;-79
2022/01/21 11:25:57;;;;;;;9.10;2.28;;;6.30;46.70;;;;;;5054588;28;20174;-78
2022/01/21 11:28:50;;;;;;;12.95;2.42;;;6.20;46.20;;;;;;5054504;28;20021;-78
2022/01/21 11:31:18;;;;;;;6.25;1.92;;;6.20;46.30;;;;;;5051336;28;20036;-76
2022/01/21 11:33:47;;;;;;;7.28;2.35;;;6.20;47.00;;;;;;5056610;28;20025;-86
2022/01/21 11:36:15;;;;;;;18.25;3.45;;;6.10;47.40;;;;;;5072047;28;20041;-81
2022/01/21 11:38:45;;;;;;;6.25;2.40;;;5.60;47.40;;;;;;5054198;28;20075;-81
2022/01/21 11:41:14;;;;;;;14.98;2.30;;;5.50;49.00;;;;;;5038862;28;20033;-79
2022/01/21 11:43:47;;;;;;;9.07;2.67;;;5.90;49.10;;;;;;5057875;28;20024;-79
2022/01/21 11:49:00;;;;;;;9.45;2.83;;;7.50;43.80;;;;;;5076007;28;20037;-78
2022/01/21 11:51:35;;;;;;;8.60;1.50;;;7.90;40.20;;;;;;5057886;28;20123;-81
2022/01/21 11:54:07;;;;;;;8.68;2.15;;;8.00;39.00;;;;;;5057699;28;20028;-79
2022/01/21 11:56:43;;;;;;;11.75;2.50;;;8.00;37.60;;;;;;5057722;28;20166;-79
2022/01/21 11:59:39;;;;;;;6.80;2.13;;;7.80;38.80;;;;;;5057875;28;20036;-79
2022/01/21 12:02:26;;;;;;;8.75;2.40;;;7.90;39.30;;;;;;5057976;28;20029;-78
2022/01/21 12:05:09;;;;;;;11.15;2.42;;;8.20;38.80;;;;;;5058232;28;20070;-83
2022/01/21 12:07:35;;;;;;;10.50;2.25;;;7.90;39.60;;;;;;5057861;28;20025;-78
2022/01/21 12:10:05;;;;;;;9.48;2.33;;;7.60;40.50;;;;;;5057450;28;20093;-81
2022/01/21 12:12:47;;;;;;;12.23;2.53;;;7.40;41.10;;;;;;5057548;28;20052;-78
2022/01/21 12:18:57;;;;;;;9.82;2.78;;;6.50;43.10;;;;;;5075270;28;20059;-81
2022/01/21 12:21:00;;;;;;;5.22;2.17;;;6.20;44.50;;;;;;5064547;28;20492;-79
2022/01/21 12:23:27;;;;;;;12.98;2.83;;;5.70;46.40;;;;;;5120998;23;20541;-77
2022/01/21 12:26:14;;;;;;;10.95;2.15;;;5.20;47.80;;;;;;4998047;28;20391;-78
2022/01/21 12:28:44;;;;;;;8.55;2.20;;;4.90;49.10;;;;;;5015776;28;20537;-79
2022/01/21 12:31:15;;;;;;;9.95;1.90;;;4.70;49.60;;;;;;5015707;28;20113;-79
2022/01/21 12:36:21;;;;;;;9.73;2.25;;;5.00;48.90;;;;;;5015545;28;20092;-79
2022/01/21 12:41:15;;;;;;;13.13;2.75;;;5.20;48.80;;;;;;5015772;28;20018;-81
2022/01/21 12:43:46;;;;;;;10.75;3.45;;;5.20;48.80;;;;;;5015534;28;20058;-79
2022/01/21 12:46:18;;;;;;;12.35;2.10;;;5.20;48.70;;;;;;5015641;28;20053;-79
2022/01/21 12:48:48;;;;;;;8.05;2.10;;;5.30;47.60;;;;;;5015516;28;20018;-79
2022/01/21 12:51:17;;;;;;;7.13;2.15;;;5.10;47.30;;;;;;5015426;28;20018;-79
2022/01/21 12:56:45;;;;;;;10.52;2.35;;;5.60;47.40;;;;;;5015616;28;20549;-81
2022/01/21 12:59:16;;;;;;;8.27;1.85;;;5.60;46.50;;;;;;5015346;28;20120;-79
2022/01/21 13:01:43;;;;;;;9.73;2.30;;;5.30;46.30;;;;;;5015544;28;20018;-78
2022/01/21 13:04:20;;;;;;;8.48;2.15;;;5.00;47.10;;;;;;4998664;28;20400;-79
2022/01/21 13:06:58;;;;;;;9.07;2.38;;;4.90;47.60;;;;;;5020018;28;20026;-79
2022/01/21 13:09:54;;;;;;;7.63;2.10;;;5.00;48.00;;;;;;5015402;28;20040;-78
2022/01/21 13:12:23;;;;;;;;;;;5.00;48.10;;;;;;5016107;28;20073;-79
2022/01/21 13:14:55;;;;;;;7.72;2.30;;;5.20;48.40;;;;;;5015531;28;20277;-77
2022/01/21 13:17:21;;;;;;;9.10;2.55;;;6.40;47.30;;;;;;4997098;28;20037;-79
2022/01/21 13:19:52;;;;;;;12.60;3.15;;;7.60;44.10;;;;;;5014543;28;20030;-78
2022/01/21 13:22:19;;;;;;;6.43;2.22;;;7.90;41.50;;;;;;5014465;28;20026;-77
2022/01/21 13:24:51;;;;;;;10.00;2.58;;;7.30;41.30;;;;;;5014593;28;20030;-80
2022/01/21 13:27:17;;;;;;;15.18;3.05;;;6.70;42.90;;;;;;5014574;28;20105;-80
2022/01/21 13:29:43;;;;;;;9.40;2.40;;;6.00;44.10;;;;;;5014384;28;20026;-79
2022/01/21 13:32:08;;;;;;;14.15;2.60;;;5.30;46.40;;;;;;5014465;28;20034;-78
2022/01/21 13:34:39;;;;;;;4.43;2.03;;;4.90;48.10;;;;;;5014244;28;20053;-80
2022/01/21 13:37:07;;;;;;;9.38;4.00;;;4.70;49.20;;;;;;4996694;28;20076;-80
2022/01/21 13:39:36;;;;;;;8.52;2.40;;;4.60;50.20;;;;;;5014377;28;20586;-79
2022/01/21 13:42:06;;;;;;;10.50;2.42;;;4.40;50.30;;;;;;4996826;28;20045;-79
2022/01/21 13:44:47;;;;;;;7.05;2.17;;;4.20;50.40;;;;;;4996685;28;20036;-78
2022/01/21 13:47:41;;;;;;;4.10;1.77;;;4.10;50.70;;;;;;4996709;28;20025;-78
2022/01/21 13:50:20;;;;;;;6.43;2.15;;;4.00;51.00;;;;;;5014400;28;20100;-78
2022/01/21 13:53:14;;;;;;;5.60;1.45;;;3.90;51.60;;;;;;4996488;28;20475;-78
2022/01/21 13:55:44;;;;;;;9.05;1.80;;;3.80;51.90;;;;;;4995795;28;20034;-77